Lewis B Strait — WDJ7777 — position and weather

sailwx.info

Track history (hours):
 
Tides and Currents Weather Stations Pressure Air Temp Water Temp Dewpoint Dewpoint Depression Visibility Wind Speed Wind Dir Waves Ship Positions

Lewis B Strait

Owner: Western Rivers Boat Mgt., Paducah, KY. More information available from US FCC via Universal Licensing System and Coast Guard Vessel Documentation Center.

Last reported at 2018-May-19 00:19 UTC. Time now 2018-May-22 02:22 UTC.
Position N 31°60' W 091°05'.

Length 54 m; draft 2.9 m.

Type: Tow > 200 m length. MMSI: 368010020.

Date/timePositionNaut miles runAvg speedWind from/ knotsBaromVisibWave heightAir tempDewpointWater temp
2018-May-19 00:19N 31°60' W 091°05'3 8.4
2018-May-19 00:00N 32°02' W 091°04'3 6.8
2018-May-18 23:30N 32°05' W 091°05'2 4.3
2018-May-18 22:55N 32°08' W 091°04'3 7.5
2018-May-18 22:30N 32°08' W 091°01'4 8.3
2018-May-18 22:00N 32°12' W 090°59'4 8.2
2018-May-18 21:30N 32°16' W 090°58'4 7.4
2018-May-18 21:00N 32°18' W 090°55'2 4.0
2018-May-18 20:30N 32°20' W 090°54'3 6.6
2018-May-18 20:00N 32°21' W 090°58'3 6.1
2018-May-18 19:30N 32°24' W 090°60'3 6.9
2018-May-18 19:00N 32°26' W 091°02'4 6.8
2018-May-18 18:29N 32°28' W 091°06'5 7.6
2018-May-18 17:53N 32°32' W 091°06'3 7.7
2018-May-18 17:30N 32°35' W 091°07'  
2018-May-10 12:28N 32°46' W 091°09'5 1.4
2018-May-10 08:59N 32°44' W 091°04'3 4.8
2018-May-10 08:19N 32°41' W 091°05'5 7.0
2018-May-10 07:34N 32°37' W 091°09'1 7.8
2018-May-10 07:30N 32°36' W 091°08'4 7.1
2018-May-10 06:58N 32°33' W 091°07'3 7.4
2018-May-10 06:30N 32°29' W 091°07'3 6.8
2018-May-10 06:00N 32°27' W 091°04'4 7.4
2018-May-10 05:30N 32°25' W 091°00'4 7.2
2018-May-10 05:00N 32°22' W 091°00'4 7.1
2018-May-10 04:30N 32°21' W 090°56'2 4.8
2018-May-10 04:00N 32°19' W 090°55'1 1.7
2018-May-10 03:30N 32°18' W 090°56'0 0.0
2018-May-10 03:00N 32°18' W 090°56'0 0.0
2018-May-10 02:30N 32°18' W 090°56'0 0.0
2018-May-10 02:00N 32°18' W 090°56'3 5.3
2018-May-10 01:30N 32°16' W 090°58'4 7.6
2018-May-10 01:00N 32°12' W 090°59'4 7.1
2018-May-10 00:30N 32°09' W 090°60'3 6.3
2018-May-10 00:00N 32°08' W 091°03'3 5.1
2018-May-09 23:30N 32°06' W 091°06'4 7.4
2018-May-09 23:00N 32°03' W 091°04'64 6.0
2018-May-09 12:14N 31°04' W 091°34'3 6.9
2018-May-09 11:52N 31°01' W 091°35'  
Track history (hours):
 
Tides and Currents Weather Stations Pressure Air Temp Water Temp Dewpoint Dewpoint Depression Visibility Wind Speed Wind Dir Waves Ship Positions

Lewis B Strait

Owner: Western Rivers Boat Mgt., Paducah, KY. More information available from US FCC via Universal Licensing System and Coast Guard Vessel Documentation Center.

Last reported at 2018-May-19 00:19 UTC. Time now 2018-May-22 02:22 UTC.
Position N 31°60' W 091°05'.

Length 54 m; draft 2.9 m.

Type: Tow > 200 m length. MMSI: 368010020.

Date/timePositionNaut miles runAvg speedWind from/ knotsBaromVisibWave heightAir tempDewpointWater temp
2018-May-19 00:19N 31°60' W 091°05'3 8.4
2018-May-19 00:00N 32°02' W 091°04'3 6.8
2018-May-18 23:30N 32°05' W 091°05'2 4.3
2018-May-18 22:55N 32°08' W 091°04'3 7.5
2018-May-18 22:30N 32°08' W 091°01'4 8.3
2018-May-18 22:00N 32°12' W 090°59'4 8.2
2018-May-18 21:30N 32°16' W 090°58'4 7.4
2018-May-18 21:00N 32°18' W 090°55'2 4.0
2018-May-18 20:30N 32°20' W 090°54'3 6.6
2018-May-18 20:00N 32°21' W 090°58'3 6.1
2018-May-18 19:30N 32°24' W 090°60'3 6.9
2018-May-18 19:00N 32°26' W 091°02'4 6.8
2018-May-18 18:29N 32°28' W 091°06'5 7.6
2018-May-18 17:53N 32°32' W 091°06'3 7.7
2018-May-18 17:30N 32°35' W 091°07'  
2018-May-10 12:28N 32°46' W 091°09'5 1.4
2018-May-10 08:59N 32°44' W 091°04'3 4.8
2018-May-10 08:19N 32°41' W 091°05'5 7.0
2018-May-10 07:34N 32°37' W 091°09'1 7.8
2018-May-10 07:30N 32°36' W 091°08'4 7.1
2018-May-10 06:58N 32°33' W 091°07'3 7.4
2018-May-10 06:30N 32°29' W 091°07'3 6.8
2018-May-10 06:00N 32°27' W 091°04'4 7.4
2018-May-10 05:30N 32°25' W 091°00'4 7.2
2018-May-10 05:00N 32°22' W 091°00'4 7.1
2018-May-10 04:30N 32°21' W 090°56'2 4.8
2018-May-10 04:00N 32°19' W 090°55'1 1.7
2018-May-10 03:30N 32°18' W 090°56'0 0.0
2018-May-10 03:00N 32°18' W 090°56'0 0.0
2018-May-10 02:30N 32°18' W 090°56'0 0.0
2018-May-10 02:00N 32°18' W 090°56'3 5.3
2018-May-10 01:30N 32°16' W 090°58'4 7.6
2018-May-10 01:00N 32°12' W 090°59'4 7.1
2018-May-10 00:30N 32°09' W 090°60'3 6.3
2018-May-10 00:00N 32°08' W 091°03'3 5.1
2018-May-09 23:30N 32°06' W 091°06'4 7.4
2018-May-09 23:00N 32°03' W 091°04'64 6.0
2018-May-09 12:14N 31°04' W 091°34'3 6.9
2018-May-09 11:52N 31°01' W 091°35'  

Dump ship's entire track history